sensor_id;sensor_type;location;lat;lon;timestamp;P1;durP1;ratioP1;P2;durP2;ratioP2
42432;SDS011;28071;48.232;20.668;2023-06-22T00:01:57;0.13;;;0.13;;
42432;SDS011;28071;48.232;20.668;2023-06-22T00:06:57;1.08;;;0.63;;
42432;SDS011;28071;48.232;20.668;2023-06-22T00:11:58;1.02;;;0.70;;
42432;SDS011;28071;48.232;20.668;2023-06-22T00:16:58;0.75;;;0.50;;
42432;SDS011;28071;48.232;20.668;2023-06-22T00:21:59;0.40;;;0.40;;
42432;SDS011;28071;48.232;20.668;2023-06-22T00:27:00;0.65;;;0.40;;
42432;SDS011;28071;48.232;20.668;2023-06-22T00:32:00;1.30;;;0.55;;
42432;SDS011;28071;48.232;20.668;2023-06-22T00:37:01;0.25;;;0.25;;
42432;SDS011;28071;48.232;20.668;2023-06-22T00:42:01;0.65;;;0.65;;
42432;SDS011;28071;48.232;20.668;2023-06-22T00:47:02;0.43;;;0.43;;
42432;SDS011;28071;48.232;20.668;2023-06-22T00:52:03;0.68;;;0.40;;
42432;SDS011;28071;48.232;20.668;2023-06-22T00:57:04;1.38;;;0.88;;
42432;SDS011;28071;48.232;20.668;2023-06-22T01:02:04;4.68;;;1.02;;
42432;SDS011;28071;48.232;20.668;2023-06-22T01:12:13;0.40;;;0.40;;
42432;SDS011;28071;48.232;20.668;2023-06-22T01:17:17;0.95;;;0.35;;
42432;SDS011;28071;48.232;20.668;2023-06-22T01:22:19;0.47;;;0.40;;
42432;SDS011;28071;48.232;20.668;2023-06-22T01:27:32;0.38;;;0.35;;
42432;SDS011;28071;48.232;20.668;2023-06-22T01:32:45;0.22;;;0.22;;
42432;SDS011;28071;48.232;20.668;2023-06-22T01:37:47;0.25;;;0.25;;
42432;SDS011;28071;48.232;20.668;2023-06-22T01:42:49;0.93;;;0.30;;
42432;SDS011;28071;48.232;20.668;2023-06-22T01:47:51;0.93;;;0.43;;
42432;SDS011;28071;48.232;20.668;2023-06-22T01:52:51;0.38;;;0.35;;
42432;SDS011;28071;48.232;20.668;2023-06-22T01:57:52;0.32;;;0.32;;
42432;SDS011;28071;48.232;20.668;2023-06-22T02:02:54;0.35;;;0.30;;
42432;SDS011;28071;48.232;20.668;2023-06-22T02:08:05;0.50;;;0.30;;
42432;SDS011;28071;48.232;20.668;2023-06-22T02:13:09;0.43;;;0.40;;
42432;SDS011;28071;48.232;20.668;2023-06-22T02:18:11;4.82;;;1.13;;
42432;SDS011;28071;48.232;20.668;2023-06-22T02:23:12;0.77;;;0.77;;
42432;SDS011;28071;48.232;20.668;2023-06-22T02:28:12;0.63;;;0.38;;
42432;SDS011;28071;48.232;20.668;2023-06-22T02:33:12;1.08;;;0.85;;
42432;SDS011;28071;48.232;20.668;2023-06-22T02:38:13;1.77;;;1.20;;
42432;SDS011;28071;48.232;20.668;2023-06-22T02:43:14;1.00;;;0.70;;
42432;SDS011;28071;48.232;20.668;2023-06-22T02:48:14;0.50;;;0.40;;
42432;SDS011;28071;48.232;20.668;2023-06-22T02:53:15;1.13;;;0.70;;
42432;SDS011;28071;48.232;20.668;2023-06-22T02:58:16;0.35;;;0.28;;
42432;SDS011;28071;48.232;20.668;2023-06-22T03:03:16;1.20;;;0.40;;
42432;SDS011;28071;48.232;20.668;2023-06-22T03:08:16;0.68;;;0.52;;
42432;SDS011;28071;48.232;20.668;2023-06-22T03:13:17;0.43;;;0.30;;
42432;SDS011;28071;48.232;20.668;2023-06-22T03:18:17;0.70;;;0.40;;
42432;SDS011;28071;48.232;20.668;2023-06-22T03:23:18;0.82;;;0.80;;
42432;SDS011;28071;48.232;20.668;2023-06-22T03:28:18;2.03;;;0.35;;
42432;SDS011;28071;48.232;20.668;2023-06-22T03:33:19;0.20;;;0.20;;
42432;SDS011;28071;48.232;20.668;2023-06-22T03:38:19;1.30;;;0.77;;
42432;SDS011;28071;48.232;20.668;2023-06-22T03:43:19;0.82;;;0.38;;
42432;SDS011;28071;48.232;20.668;2023-06-22T03:48:20;0.47;;;0.47;;
42432;SDS011;28071;48.232;20.668;2023-06-22T03:53:20;0.38;;;0.38;;
42432;SDS011;28071;48.232;20.668;2023-06-22T03:58:21;0.30;;;0.20;;
42432;SDS011;28071;48.232;20.668;2023-06-22T04:03:21;0.20;;;0.20;;
42432;SDS011;28071;48.232;20.668;2023-06-22T04:08:22;0.60;;;0.25;;
42432;SDS011;28071;48.232;20.668;2023-06-22T04:13:22;0.40;;;0.40;;
42432;SDS011;28071;48.232;20.668;2023-06-22T04:18:23;1.15;;;0.57;;
42432;SDS011;28071;48.232;20.668;2023-06-22T04:23:23;1.05;;;0.40;;
42432;SDS011;28071;48.232;20.668;2023-06-22T04:28:24;0.65;;;0.57;;
42432;SDS011;28071;48.232;20.668;2023-06-22T04:33:24;0.70;;;0.35;;
42432;SDS011;28071;48.232;20.668;2023-06-22T04:38:25;1.02;;;0.52;;
42432;SDS011;28071;48.232;20.668;2023-06-22T04:43:25;0.65;;;0.35;;
42432;SDS011;28071;48.232;20.668;2023-06-22T04:48:25;0.65;;;0.38;;
42432;SDS011;28071;48.232;20.668;2023-06-22T04:53:32;0.88;;;0.60;;
42432;SDS011;28071;48.232;20.668;2023-06-22T04:58:33;0.95;;;0.63;;
42432;SDS011;28071;48.232;20.668;2023-06-22T05:03:33;0.98;;;0.45;;
42432;SDS011;28071;48.232;20.668;2023-06-22T05:08:33;0.88;;;0.77;;
42432;SDS011;28071;48.232;20.668;2023-06-22T05:13:34;1.48;;;0.98;;
42432;SDS011;28071;48.232;20.668;2023-06-22T05:18:35;1.30;;;0.80;;
42432;SDS011;28071;48.232;20.668;2023-06-22T05:23:36;3.05;;;1.85;;
42432;SDS011;28071;48.232;20.668;2023-06-22T05:28:37;0.50;;;0.50;;
42432;SDS011;28071;48.232;20.668;2023-06-22T05:33:37;3.88;;;1.00;;
42432;SDS011;28071;48.232;20.668;2023-06-22T05:38:37;0.70;;;0.47;;
42432;SDS011;28071;48.232;20.668;2023-06-22T05:43:38;1.70;;;0.90;;
42432;SDS011;28071;48.232;20.668;2023-06-22T05:48:39;3.38;;;1.50;;
42432;SDS011;28071;48.232;20.668;2023-06-22T05:53:39;1.20;;;1.02;;
42432;SDS011;28071;48.232;20.668;2023-06-22T05:58:40;1.77;;;0.95;;
42432;SDS011;28071;48.232;20.668;2023-06-22T06:03:40;0.57;;;0.30;;
42432;SDS011;28071;48.232;20.668;2023-06-22T06:08:40;0.88;;;0.47;;
42432;SDS011;28071;48.232;20.668;2023-06-22T06:13:41;1.58;;;0.88;;
42432;SDS011;28071;48.232;20.668;2023-06-22T06:18:42;1.65;;;0.70;;
42432;SDS011;28071;48.232;20.668;2023-06-22T06:23:42;0.98;;;0.50;;
42432;SDS011;28071;48.232;20.668;2023-06-22T06:28:43;0.80;;;0.70;;
42432;SDS011;28071;48.232;20.668;2023-06-22T06:33:44;0.77;;;0.40;;
42432;SDS011;28071;48.232;20.668;2023-06-22T06:38:44;1.13;;;0.70;;
42432;SDS011;28071;48.232;20.668;2023-06-22T06:43:47;1.55;;;0.57;;
42432;SDS011;28071;48.232;20.668;2023-06-22T06:48:47;0.47;;;0.40;;
42432;SDS011;28071;48.232;20.668;2023-06-22T06:53:48;0.52;;;0.50;;
42432;SDS011;28071;48.232;20.668;2023-06-22T06:58:49;2.17;;;0.63;;
42432;SDS011;28071;48.232;20.668;2023-06-22T07:03:51;0.25;;;0.20;;
42432;SDS011;28071;48.232;20.668;2023-06-22T07:08:51;1.05;;;0.70;;
42432;SDS011;28071;48.232;20.668;2023-06-22T07:13:51;1.50;;;0.50;;
42432;SDS011;28071;48.232;20.668;2023-06-22T07:18:52;1.88;;;0.68;;
42432;SDS011;28071;48.232;20.668;2023-06-22T07:23:52;1.33;;;0.40;;
42432;SDS011;28071;48.232;20.668;2023-06-22T07:28:54;0.50;;;0.40;;
42432;SDS011;28071;48.232;20.668;2023-06-22T07:33:54;1.92;;;0.60;;
42432;SDS011;28071;48.232;20.668;2023-06-22T07:38:55;1.08;;;0.55;;
42432;SDS011;28071;48.232;20.668;2023-06-22T07:43:55;1.17;;;0.65;;
42432;SDS011;28071;48.232;20.668;2023-06-22T07:48:56;1.65;;;0.65;;
42432;SDS011;28071;48.232;20.668;2023-06-22T07:53:57;1.30;;;1.00;;
42432;SDS011;28071;48.232;20.668;2023-06-22T07:58:57;1.13;;;0.80;;
42432;SDS011;28071;48.232;20.668;2023-06-22T08:03:59;1.42;;;0.82;;
42432;SDS011;28071;48.232;20.668;2023-06-22T08:08:59;0.98;;;0.88;;
42432;SDS011;28071;48.232;20.668;2023-06-22T08:14:00;0.52;;;0.50;;
42432;SDS011;28071;48.232;20.668;2023-06-22T08:19:00;0.80;;;0.60;;
42432;SDS011;28071;48.232;20.668;2023-06-22T08:24:00;1.52;;;1.20;;
42432;SDS011;28071;48.232;20.668;2023-06-22T08:29:02;2.22;;;1.40;;
42432;SDS011;28071;48.232;20.668;2023-06-22T08:34:03;1.55;;;1.10;;
42432;SDS011;28071;48.232;20.668;2023-06-22T08:39:04;1.48;;;1.10;;
42432;SDS011;28071;48.232;20.668;2023-06-22T08:44:04;1.77;;;1.08;;
42432;SDS011;28071;48.232;20.668;2023-06-22T08:49:05;1.42;;;1.10;;
42432;SDS011;28071;48.232;20.668;2023-06-22T08:54:06;1.83;;;1.15;;
42432;SDS011;28071;48.232;20.668;2023-06-22T08:59:06;2.30;;;1.42;;
42432;SDS011;28071;48.232;20.668;2023-06-22T09:04:07;2.20;;;1.10;;
42432;SDS011;28071;48.232;20.668;2023-06-22T09:09:09;1.85;;;1.02;;
42432;SDS011;28071;48.232;20.668;2023-06-22T09:14:10;1.35;;;0.90;;
42432;SDS011;28071;48.232;20.668;2023-06-22T09:19:11;1.92;;;1.42;;
42432;SDS011;28071;48.232;20.668;2023-06-22T09:24:12;1.65;;;1.23;;
42432;SDS011;28071;48.232;20.668;2023-06-22T09:29:12;1.70;;;1.27;;
42432;SDS011;28071;48.232;20.668;2023-06-22T09:34:13;1.75;;;1.55;;
42432;SDS011;28071;48.232;20.668;2023-06-22T09:39:13;1.48;;;0.90;;
42432;SDS011;28071;48.232;20.668;2023-06-22T09:44:13;1.48;;;1.10;;
42432;SDS011;28071;48.232;20.668;2023-06-22T09:49:14;2.15;;;1.25;;
42432;SDS011;28071;48.232;20.668;2023-06-22T09:54:14;3.28;;;1.70;;
42432;SDS011;28071;48.232;20.668;2023-06-22T09:59:15;1.45;;;1.33;;
42432;SDS011;28071;48.232;20.668;2023-06-22T10:04:15;1.95;;;1.38;;
42432;SDS011;28071;48.232;20.668;2023-06-22T10:09:16;1.10;;;1.02;;
42432;SDS011;28071;48.232;20.668;2023-06-22T10:14:16;1.85;;;1.33;;
42432;SDS011;28071;48.232;20.668;2023-06-22T10:19:17;1.63;;;1.17;;
42432;SDS011;28071;48.232;20.668;2023-06-22T10:24:17;2.33;;;1.60;;
42432;SDS011;28071;48.232;20.668;2023-06-22T10:29:18;1.60;;;1.50;;
42432;SDS011;28071;48.232;20.668;2023-06-22T10:34:18;6.13;;;2.13;;
42432;SDS011;28071;48.232;20.668;2023-06-22T10:39:19;4.53;;;1.63;;
42432;SDS011;28071;48.232;20.668;2023-06-22T10:44:19;2.75;;;1.73;;
42432;SDS011;28071;48.232;20.668;2023-06-22T10:49:20;8.80;;;1.45;;
42432;SDS011;28071;48.232;20.668;2023-06-22T10:54:21;1.90;;;1.48;;
42432;SDS011;28071;48.232;20.668;2023-06-22T10:59:21;1.50;;;1.40;;
42432;SDS011;28071;48.232;20.668;2023-06-22T11:04:23;2.70;;;1.83;;
42432;SDS011;28071;48.232;20.668;2023-06-22T11:09:24;1.92;;;1.50;;
42432;SDS011;28071;48.232;20.668;2023-06-22T11:14:25;2.03;;;1.60;;
42432;SDS011;28071;48.232;20.668;2023-06-22T11:19:26;2.05;;;1.33;;
42432;SDS011;28071;48.232;20.668;2023-06-22T11:24:26;2.00;;;1.80;;
42432;SDS011;28071;48.232;20.668;2023-06-22T11:29:26;2.10;;;1.33;;
42432;SDS011;28071;48.232;20.668;2023-06-22T11:34:27;1.55;;;1.27;;
42432;SDS011;28071;48.232;20.668;2023-06-22T11:39:28;1.88;;;1.50;;
42432;SDS011;28071;48.232;20.668;2023-06-22T11:44:28;1.50;;;1.17;;
42432;SDS011;28071;48.232;20.668;2023-06-22T11:49:29;2.95;;;1.58;;
42432;SDS011;28071;48.232;20.668;2023-06-22T11:54:30;2.53;;;1.98;;
42432;SDS011;28071;48.232;20.668;2023-06-22T11:59:31;2.17;;;1.65;;
42432;SDS011;28071;48.232;20.668;2023-06-22T12:04:31;2.08;;;1.30;;
42432;SDS011;28071;48.232;20.668;2023-06-22T12:09:31;1.60;;;1.20;;
42432;SDS011;28071;48.232;20.668;2023-06-22T12:14:32;1.50;;;1.40;;
42432;SDS011;28071;48.232;20.668;2023-06-22T12:19:32;1.38;;;1.27;;
42432;SDS011;28071;48.232;20.668;2023-06-22T12:24:33;1.30;;;1.20;;
42432;SDS011;28071;48.232;20.668;2023-06-22T12:29:33;1.67;;;1.40;;
42432;SDS011;28071;48.232;20.668;2023-06-22T12:34:33;1.58;;;1.27;;
42432;SDS011;28071;48.232;20.668;2023-06-22T12:39:34;2.95;;;1.52;;
42432;SDS011;28071;48.232;20.668;2023-06-22T12:44:35;1.48;;;1.38;;
42432;SDS011;28071;48.232;20.668;2023-06-22T12:49:35;3.47;;;1.90;;
42432;SDS011;28071;48.232;20.668;2023-06-22T12:54:36;1.83;;;1.20;;
42432;SDS011;28071;48.232;20.668;2023-06-22T12:59:36;2.38;;;1.42;;
42432;SDS011;28071;48.232;20.668;2023-06-22T13:04:37;1.23;;;1.10;;
42432;SDS011;28071;48.232;20.668;2023-06-22T13:09:38;1.58;;;1.30;;
42432;SDS011;28071;48.232;20.668;2023-06-22T13:14:38;1.35;;;1.25;;
42432;SDS011;28071;48.232;20.668;2023-06-22T13:19:38;1.58;;;1.40;;
42432;SDS011;28071;48.232;20.668;2023-06-22T13:24:39;1.27;;;1.17;;
42432;SDS011;28071;48.232;20.668;2023-06-22T13:29:39;1.42;;;1.25;;
42432;SDS011;28071;48.232;20.668;2023-06-22T13:34:40;2.30;;;1.20;;
42432;SDS011;28071;48.232;20.668;2023-06-22T13:39:40;1.88;;;1.50;;
42432;SDS011;28071;48.232;20.668;2023-06-22T13:44:41;2.03;;;1.60;;
42432;SDS011;28071;48.232;20.668;2023-06-22T13:49:42;1.45;;;1.27;;
42432;SDS011;28071;48.232;20.668;2023-06-22T13:54:42;2.35;;;1.48;;
42432;SDS011;28071;48.232;20.668;2023-06-22T13:59:43;1.75;;;1.30;;
42432;SDS011;28071;48.232;20.668;2023-06-22T14:04:43;1.55;;;1.00;;
42432;SDS011;28071;48.232;20.668;2023-06-22T14:09:43;1.35;;;1.10;;
42432;SDS011;28071;48.232;20.668;2023-06-22T14:14:44;1.95;;;1.63;;
42432;SDS011;28071;48.232;20.668;2023-06-22T14:19:44;1.38;;;1.27;;
42432;SDS011;28071;48.232;20.668;2023-06-22T14:24:45;3.00;;;1.67;;
42432;SDS011;28071;48.232;20.668;2023-06-22T14:29:46;2.53;;;1.42;;
42432;SDS011;28071;48.232;20.668;2023-06-22T14:34:46;1.40;;;1.23;;
42432;SDS011;28071;48.232;20.668;2023-06-22T14:39:47;1.83;;;1.08;;
42432;SDS011;28071;48.232;20.668;2023-06-22T14:44:47;1.88;;;1.33;;
42432;SDS011;28071;48.232;20.668;2023-06-22T14:49:48;1.30;;;1.08;;
42432;SDS011;28071;48.232;20.668;2023-06-22T14:54:49;1.98;;;1.40;;
42432;SDS011;28071;48.232;20.668;2023-06-22T14:59:52;2.13;;;1.30;;
42432;SDS011;28071;48.232;20.668;2023-06-22T15:04:52;2.15;;;1.65;;
42432;SDS011;28071;48.232;20.668;2023-06-22T15:09:54;1.83;;;1.20;;
42432;SDS011;28071;48.232;20.668;2023-06-22T15:14:54;2.65;;;1.33;;
42432;SDS011;28071;48.232;20.668;2023-06-22T15:19:55;1.35;;;1.23;;
42432;SDS011;28071;48.232;20.668;2023-06-22T15:24:55;1.92;;;1.27;;
42432;SDS011;28071;48.232;20.668;2023-06-22T15:29:58;1.50;;;1.20;;
42432;SDS011;28071;48.232;20.668;2023-06-22T15:34:58;1.70;;;1.42;;
42432;SDS011;28071;48.232;20.668;2023-06-22T15:39:59;1.75;;;1.48;;
42432;SDS011;28071;48.232;20.668;2023-06-22T15:44:59;2.42;;;1.60;;
42432;SDS011;28071;48.232;20.668;2023-06-22T15:50:00;2.92;;;1.30;;
42432;SDS011;28071;48.232;20.668;2023-06-22T15:55:00;2.55;;;1.90;;
42432;SDS011;28071;48.232;20.668;2023-06-22T16:00:01;1.63;;;1.50;;
42432;SDS011;28071;48.232;20.668;2023-06-22T16:05:02;1.80;;;1.15;;
42432;SDS011;28071;48.232;20.668;2023-06-22T16:10:04;1.98;;;1.58;;
42432;SDS011;28071;48.232;20.668;2023-06-22T16:15:05;1.77;;;1.23;;
42432;SDS011;28071;48.232;20.668;2023-06-22T16:20:07;1.40;;;1.30;;
42432;SDS011;28071;48.232;20.668;2023-06-22T16:25:08;1.42;;;1.23;;
42432;SDS011;28071;48.232;20.668;2023-06-22T16:30:08;1.80;;;1.52;;
42432;SDS011;28071;48.232;20.668;2023-06-22T16:35:09;1.20;;;0.93;;
42432;SDS011;28071;48.232;20.668;2023-06-22T16:40:09;2.47;;;1.77;;
42432;SDS011;28071;48.232;20.668;2023-06-22T16:45:10;1.60;;;0.95;;
42432;SDS011;28071;48.232;20.668;2023-06-22T16:50:14;2.55;;;1.42;;
42432;SDS011;28071;48.232;20.668;2023-06-22T16:55:16;3.65;;;1.60;;
42432;SDS011;28071;48.232;20.668;2023-06-22T17:00:16;2.22;;;1.38;;
42432;SDS011;28071;48.232;20.668;2023-06-22T17:05:18;1.67;;;1.40;;
42432;SDS011;28071;48.232;20.668;2023-06-22T17:10:20;2.10;;;1.40;;
42432;SDS011;28071;48.232;20.668;2023-06-22T17:15:21;1.83;;;1.48;;
42432;SDS011;28071;48.232;20.668;2023-06-22T17:20:22;2.60;;;1.17;;
42432;SDS011;28071;48.232;20.668;2023-06-22T17:25:23;1.13;;;1.00;;
42432;SDS011;28071;48.232;20.668;2023-06-22T17:30:26;1.55;;;1.27;;
42432;SDS011;28071;48.232;20.668;2023-06-22T17:35:29;1.15;;;1.05;;
42432;SDS011;28071;48.232;20.668;2023-06-22T17:40:30;2.72;;;1.38;;
42432;SDS011;28071;48.232;20.668;2023-06-22T17:45:31;2.25;;;1.73;;
42432;SDS011;28071;48.232;20.668;2023-06-22T17:50:31;1.70;;;1.40;;
42432;SDS011;28071;48.232;20.668;2023-06-22T17:55:32;2.88;;;1.67;;
42432;SDS011;28071;48.232;20.668;2023-06-22T18:00:33;4.00;;;1.02;;
42432;SDS011;28071;48.232;20.668;2023-06-22T18:05:35;1.65;;;1.10;;
42432;SDS011;28071;48.232;20.668;2023-06-22T18:10:37;1.33;;;1.15;;
42432;SDS011;28071;48.232;20.668;2023-06-22T18:15:38;1.15;;;1.05;;
42432;SDS011;28071;48.232;20.668;2023-06-22T18:20:39;1.75;;;0.88;;
42432;SDS011;28071;48.232;20.668;2023-06-22T18:25:40;0.85;;;0.80;;
42432;SDS011;28071;48.232;20.668;2023-06-22T18:30:45;1.20;;;0.70;;
42432;SDS011;28071;48.232;20.668;2023-06-22T18:35:46;2.70;;;0.90;;
42432;SDS011;28071;48.232;20.668;2023-06-22T18:40:49;1.70;;;1.20;;
42432;SDS011;28071;48.232;20.668;2023-06-22T18:45:53;2.08;;;1.23;;
42432;SDS011;28071;48.232;20.668;2023-06-22T18:50:53;1.52;;;1.02;;
42432;SDS011;28071;48.232;20.668;2023-06-22T19:01:18;1.40;;;1.15;;
42432;SDS011;28071;48.232;20.668;2023-06-22T19:07:09;1.58;;;1.20;;
42432;SDS011;28071;48.232;20.668;2023-06-22T19:11:50;1.60;;;1.00;;
42432;SDS011;28071;48.232;20.668;2023-06-22T19:17:20;1.77;;;1.30;;
42432;SDS011;28071;48.232;20.668;2023-06-22T19:22:42;2.08;;;1.45;;
42432;SDS011;28071;48.232;20.668;2023-06-22T19:27:54;1.38;;;0.75;;
42432;SDS011;28071;48.232;20.668;2023-06-22T19:32:55;2.45;;;1.33;;
42432;SDS011;28071;48.232;20.668;2023-06-22T19:37:57;1.70;;;1.42;;
42432;SDS011;28071;48.232;20.668;2023-06-22T19:42:58;2.40;;;1.08;;
42432;SDS011;28071;48.232;20.668;2023-06-22T19:47:58;2.00;;;1.30;;
42432;SDS011;28071;48.232;20.668;2023-06-22T19:52:59;1.65;;;1.33;;
42432;SDS011;28071;48.232;20.668;2023-06-22T19:57:59;1.38;;;1.17;;
42432;SDS011;28071;48.232;20.668;2023-06-22T20:03:00;3.13;;;1.30;;
42432;SDS011;28071;48.232;20.668;2023-06-22T20:08:02;1.50;;;1.08;;
42432;SDS011;28071;48.232;20.668;2023-06-22T20:13:06;2.17;;;1.00;;
42432;SDS011;28071;48.232;20.668;2023-06-22T20:18:21;1.08;;;0.90;;
42432;SDS011;28071;48.232;20.668;2023-06-22T20:23:22;2.58;;;1.63;;
42432;SDS011;28071;48.232;20.668;2023-06-22T20:28:24;5.32;;;2.10;;
42432;SDS011;28071;48.232;20.668;2023-06-22T20:33:25;1.50;;;1.13;;
42432;SDS011;28071;48.232;20.668;2023-06-22T20:38:26;1.08;;;0.93;;
42432;SDS011;28071;48.232;20.668;2023-06-22T20:43:28;1.42;;;0.80;;
42432;SDS011;28071;48.232;20.668;2023-06-22T20:48:28;2.42;;;1.40;;
42432;SDS011;28071;48.232;20.668;2023-06-22T20:53:29;1.88;;;1.25;;
42432;SDS011;28071;48.232;20.668;2023-06-22T20:58:29;2.67;;;1.15;;
42432;SDS011;28071;48.232;20.668;2023-06-22T21:03:30;1.35;;;0.93;;
42432;SDS011;28071;48.232;20.668;2023-06-22T21:08:30;0.98;;;0.52;;
42432;SDS011;28071;48.232;20.668;2023-06-22T21:13:31;0.63;;;0.60;;
42432;SDS011;28071;48.232;20.668;2023-06-22T21:18:34;1.45;;;1.08;;
42432;SDS011;28071;48.232;20.668;2023-06-22T21:23:37;2.53;;;1.40;;
42432;SDS011;28071;48.232;20.668;2023-06-22T21:28:38;3.38;;;1.35;;
42432;SDS011;28071;48.232;20.668;2023-06-22T21:33:38;2.22;;;1.30;;
42432;SDS011;28071;48.232;20.668;2023-06-22T21:38:38;1.08;;;0.82;;
42432;SDS011;28071;48.232;20.668;2023-06-22T21:43:39;2.17;;;1.10;;
42432;SDS011;28071;48.232;20.668;2023-06-22T21:48:39;1.90;;;1.30;;
42432;SDS011;28071;48.232;20.668;2023-06-22T21:53:40;1.27;;;1.15;;
42432;SDS011;28071;48.232;20.668;2023-06-22T21:58:40;1.77;;;0.90;;
42432;SDS011;28071;48.232;20.668;2023-06-22T22:03:41;1.48;;;1.17;;
42432;SDS011;28071;48.232;20.668;2023-06-22T22:08:42;1.95;;;1.25;;
42432;SDS011;28071;48.232;20.668;2023-06-22T22:13:43;2.53;;;1.35;;
42432;SDS011;28071;48.232;20.668;2023-06-22T22:18:43;1.85;;;1.33;;
42432;SDS011;28071;48.232;20.668;2023-06-22T22:23:46;1.63;;;1.23;;
42432;SDS011;28071;48.232;20.668;2023-06-22T22:28:47;1.60;;;0.98;;
42432;SDS011;28071;48.232;20.668;2023-06-22T22:33:47;1.63;;;1.13;;
42432;SDS011;28071;48.232;20.668;2023-06-22T22:44:45;2.75;;;2.08;;
42432;SDS011;28071;48.232;20.668;2023-06-22T22:49:45;2.42;;;1.60;;
42432;SDS011;28071;48.232;20.668;2023-06-22T22:54:47;4.22;;;2.78;;
42432;SDS011;28071;48.232;20.668;2023-06-22T22:59:47;4.25;;;2.20;;
42432;SDS011;28071;48.232;20.668;2023-06-22T23:04:54;3.38;;;2.03;;
42432;SDS011;28071;48.232;20.668;2023-06-22T23:09:55;2.63;;;1.70;;
42432;SDS011;28071;48.232;20.668;2023-06-22T23:14:56;1.00;;;0.73;;
42432;SDS011;28071;48.232;20.668;2023-06-22T23:19:56;2.97;;;1.55;;
42432;SDS011;28071;48.232;20.668;2023-06-22T23:24:57;3.65;;;1.08;;
42432;SDS011;28071;48.232;20.668;2023-06-22T23:29:57;4.75;;;2.05;;
42432;SDS011;28071;48.232;20.668;2023-06-22T23:34:58;3.05;;;1.20;;
42432;SDS011;28071;48.232;20.668;2023-06-22T23:39:59;3.20;;;1.63;;
42432;SDS011;28071;48.232;20.668;2023-06-22T23:44:59;3.67;;;1.92;;
42432;SDS011;28071;48.232;20.668;2023-06-22T23:50:00;2.88;;;1.90;;
42432;SDS011;28071;48.232;20.668;2023-06-22T23:55:00;5.40;;;2.20;;
